Time;durP1;ratioP1;P1;durP2;ratioP2;P2;SDS_P1;SDS_P2;PMS_P1;PMS_P2;Temp;Humidity;BMP_temperature;BMP_pressure;BME280_temperature;BME280_humidity;BME280_pressure;Samples;Min_cycle;Max_cycle;Signal;HPM_P1;HPM_P2
2021/12/07 00:01:16;;;;;;;;;;;;;;;;;;5111737;28;20270;-80
2021/12/07 00:03:42;;;;;;;;;;;;;;;;;;5077971;28;19907;-72
2021/12/07 00:06:08;;;;;;;;;;;;;;;;;;5111717;28;19904;-69
2021/12/07 00:08:34;;;;;;;;;;;;;;;;;;5118651;28;20358;-65
2021/12/07 00:11:00;;;;;;;;;;;;;;;;;;5115349;28;19910;-77
2021/12/07 00:13:30;;;;;;;;;;;;;;;;;;5115318;28;19903;-71
2021/12/07 00:15:56;;;;;;;;;;;;;;;;;;5096973;28;20349;-71
2021/12/07 00:18:22;;;;;;;;;;;;;;;;;;5096735;28;19904;-73
2021/12/07 00:20:48;;;;;;;;;;;;;;;;;;5109958;28;20294;-64
2021/12/07 00:23:16;;;;;;;;;;;;;;;;;;5114889;28;19904;-63
2021/12/07 00:25:41;;;;;;;;;;;;;;;;;;5098228;28;20002;-65
2021/12/07 00:28:07;;;;;;;;;;;;;;;;;;5114758;28;19992;-66
2021/12/07 00:30:34;;;;;;;;;;;;;;;;;;5096346;28;19995;-69
2021/12/07 00:35:39;;;;;;;;;;;;;;;;;;5114473;28;19935;-65
2021/12/07 00:38:05;;;;;;;;;;;;;;;;;;5101614;28;20385;-65
2021/12/07 00:40:31;;;;;;;;;;;;;;;;;;5114552;28;20260;-66
2021/12/07 00:42:56;;;;;;;;;;;;;;;;;;5114816;28;19927;-61
2021/12/07 00:45:24;;;;;;;;;;;;;;;;;;5114808;28;20002;-63
2021/12/07 00:47:50;;;;;;;;;;;;;;;;;;5114594;28;19919;-67
2021/12/07 00:50:16;;;;;;;;;;;;;;;;;;5114366;28;20289;-67
2021/12/07 00:52:42;;;;;;;;;;;;;;;;;;5114004;28;19903;-63
2021/12/07 00:55:08;;;;;;;;;;;;;;;;;;5109999;28;20283;-66
2021/12/07 00:57:35;;;;;;;;;;;;;;;;;;5098938;28;19900;-74
2021/12/07 01:00:00;;;;;;;;;;;;;;;;;;5114438;28;19958;-75
2021/12/07 01:02:26;;;;;;;;;;;;;;;;;;5114396;28;19970;-76
2021/12/07 01:04:57;;;;;;;;;;;;;;;;;;5114594;28;20484;-62
2021/12/07 01:07:50;;;;;;;;;;;;;;;;;;5100272;28;19953;-62
2021/12/07 01:26:54;;;;;;;;;;;;;;;;;;5114235;28;20022;-66
2021/12/07 01:29:23;;;;;;;;;;;;;;;;;;5114524;28;20453;-76
2021/12/07 02:00:28;;;;;;;;;;;;;;;;;;5114024;28;19964;-77
2021/12/07 02:02:54;;;;;;;;;;;;;;;;;;5113634;28;19904;-77
2021/12/07 02:05:20;;;;;;;;;;;;;;;;;;5113643;28;19948;-75
2021/12/07 02:07:45;;;;;;;;;;;;;;;;;;5113548;28;20040;-72
2021/12/07 02:10:16;;;;;;;;;;;;;;;;;;5113613;28;20426;-76
2021/12/07 02:12:46;;;;;;;;;;;;;;;;;;5113546;28;19911;-74
2021/12/07 02:15:12;;;;;;;;;;;;;;;;;;5113696;28;19949;-74
2021/12/07 02:17:38;;;;;;;;;;;;;;;;;;5120458;28;19919;-70
2021/12/07 02:20:04;;;;;;;;;;;;;;;;;;5096659;28;20377;-64
2021/12/07 02:22:30;;;;;;;;;;;;;;;;;;5113198;28;19951;-65
2021/12/07 02:24:56;;;;;;;;;;;;;;;;;;5095124;28;19903;-71
2021/12/07 02:27:22;;;;;;;;;;;;;;;;;;5113239;28;19907;-66
2021/12/07 02:29:48;;;;;;;;;;;;;;;;;;5095127;28;19904;-63
2021/12/07 02:32:14;;;;;;;;;;;;;;;;;;5094681;28;20294;-74
2021/12/07 02:34:52;;;;;;;;;;;;;;;;;;5113337;28;20549;-77
2021/12/07 02:37:18;;;;;;;;;;;;;;;;;;5113658;28;19908;-63
2021/12/07 02:39:44;;;;;;;;;;;;;;;;;;5113666;28;19918;-67
2021/12/07 02:42:10;;;;;;;;;;;;;;;;;;5113552;28;19904;-67
2021/12/07 02:44:36;;;;;;;;;;;;;;;;;;5113622;28;19953;-63
2021/12/07 02:47:02;;;;;;;;;;;;;;;;;;5112580;28;19939;-68
2021/12/07 02:49:28;;;;;;;;;;;;;;;;;;5094512;28;19954;-62
2021/12/07 02:51:54;;;;;;;;;;;;;;;;;;5112982;28;20316;-62
2021/12/07 02:54:21;;;;;;;;;;;;;;;;;;5094487;28;19904;-73
2021/12/07 02:56:47;;;;;;;;;;;;;;;;;;5112711;28;20384;-67
2021/12/07 02:59:13;;;;;;;;;;;;;;;;;;5112542;28;19911;-66
2021/12/07 03:01:46;;;;;;;;;;;;;;;;;;5094362;28;19904;-65
2021/12/07 03:04:16;;;;;;;;;;;;;;;;;;5112680;28;19907;-69
2021/12/07 03:06:51;;;;;;;;;;;;;;;;;;5111215;28;19912;-72
2021/12/07 03:25:55;;;;;;;;;;;;;;;;;;5112543;28;20373;-62
2021/12/07 03:28:18;;;;;;;;;;;;;;;;;;5091786;28;20259;-65
2021/12/07 03:30:44;;;;;;;;;;;;;;;;;;5091971;28;19904;-72
2021/12/07 03:33:10;;;;;;;;;;;;;;;;;;5091887;28;19904;-67
2021/12/07 03:35:36;;;;;;;;;;;;;;;;;;5091899;28;19911;-69
2021/12/07 03:38:02;;;;;;;;;;;;;;;;;;5091911;28;20404;-72
2021/12/07 03:40:28;;;;;;;;;;;;;;;;;;5073797;28;19912;-73
2021/12/07 03:42:54;;;;;;;;;;;;;;;;;;5073693;28;19904;-75
2021/12/07 03:45:20;;;;;;;;;;;;;;;;;;5094495;28;20358;-70
2021/12/07 03:47:46;;;;;;;;;;;;;;;;;;5077603;28;20000;-70
2021/12/07 03:50:12;;;;;;;;;;;;;;;;;;5095739;28;19930;-65
2021/12/07 03:52:37;;;;;;;;;;;;;;;;;;5095828;28;19901;-74
2021/12/07 03:55:03;;;;;;;;;;;;;;;;;;5095878;28;19911;-67
2021/12/07 03:57:29;;;;;;;;;;;;;;;;;;5094695;28;19961;-71
2021/12/07 03:59:55;;;;;;;;;;;;;;;;;;5095497;28;19916;-74
2021/12/07 04:02:21;;;;;;;;;;;;;;;;;;5095676;28;20371;-67
2021/12/07 04:04:52;;;;;;;;;;;;;;;;;;5095585;28;19907;-74
2021/12/07 04:07:18;;;;;;;;;;;;;;;;;;5095528;28;19957;-75
2021/12/07 04:09:44;;;;;;;;;;;;;;;;;;5095747;28;20317;-67
2021/12/07 04:12:10;;;;;;;;;;;;;;;;;;5095888;28;20413;-62
2021/12/07 04:14:36;;;;;;;;;;;;;;;;;;5095777;28;19904;-72
2021/12/07 04:17:02;;;;;;;;;;;;;;;;;;5096930;28;19949;-73
2021/12/07 04:19:28;;;;;;;;;;;;;;;;;;5081777;28;19912;-72
2021/12/07 04:21:54;;;;;;;;;;;;;;;;;;5080187;28;19904;-64
2021/12/07 04:24:20;;;;;;;;;;;;;;;;;;5095276;28;20360;-74
2021/12/07 04:26:45;;;;;;;;;;;;;;;;;;5095289;28;19994;-71
2021/12/07 04:29:11;;;;;;;;;;;;;;;;;;5095216;28;20305;-62
2021/12/07 04:31:37;;;;;;;;;;;;;;;;;;5095157;28;19908;-76
2021/12/07 04:34:03;;;;;;;;;;;;;;;;;;5095250;28;20350;-74
2021/12/07 04:36:29;;;;;;;;;;;;;;;;;;5096451;28;19919;-63
2021/12/07 04:38:55;;;;;;;;;;;;;;;;;;5096123;28;19969;-64
2021/12/07 04:41:21;;;;;;;;;;;;;;;;;;5094803;28;20370;-73
2021/12/07 04:43:48;;;;;;;;;;;;;;;;;;5094822;28;19904;-62
2021/12/07 04:46:23;;;;;;;;;;;;;;;;;;5094889;28;20374;-70
2021/12/07 04:59:28;;;;;;;;;;;;;;;;;;5094245;28;19927;-70
2021/12/07 05:01:54;;;;;;;;;;;;;;;;;;5076425;28;19908;-73
2021/12/07 05:04:25;;;;;;;;;;;;;;;;;;5094607;28;19939;-70
2021/12/07 05:06:56;;;;;;;;;;;;;;;;;;5099192;28;19957;-71
2021/12/07 05:14:30;;;;;;;;;;;;;;;;;;5114921;28;19926;-74
2021/12/07 05:38:26;;;;;;;;;;;;;;;;;;5114373;28;19927;-74
2021/12/07 05:40:52;;;;;;;;;;;;;;;;;;5114315;28;19930;-65
2021/12/07 05:43:17;;;;;;;;;;;;;;;;;;5114165;28;20351;-70
2021/12/07 05:45:43;;;;;;;;;;;;;;;;;;5114304;28;19910;-78
2021/12/07 05:48:09;;;;;;;;;;;;;;;;;;5113807;28;19915;-70
2021/12/07 05:50:35;;;;;;;;;;;;;;;;;;5095567;28;19958;-76
2021/12/07 05:53:01;;;;;;;;;;;;;;;;;;5113872;28;19912;-79
2021/12/07 05:55:27;;;;;;;;;;;;;;;;;;5114261;28;19904;-78
2021/12/07 05:57:53;;;;;;;;;;;;;;;;;;5093656;28;20002;-78
2021/12/07 06:00:24;;;;;;;;;;;;;;;;;;5113823;28;19911;-72
2021/12/07 06:02:50;;;;;;;;;;;;;;;;;;5113795;28;19950;-73
2021/12/07 06:05:16;;;;;;;;;;;;;;;;;;5113932;28;19904;-68
2021/12/07 06:07:42;;;;;;;;;;;;;;;;;;5113250;28;19904;-72
2021/12/07 06:10:08;;;;;;;;;;;;;;;;;;5113817;28;19904;-71
2021/12/07 06:12:34;;;;;;;;;;;;;;;;;;5113500;28;20286;-68
2021/12/07 06:15:00;;;;;;;;;;;;;;;;;;5113551;28;20027;-70
2021/12/07 06:17:26;;;;;;;;;;;;;;;;;;5113455;28;20339;-67
2021/12/07 06:19:52;;;;;;;;;;;;;;;;;;5113341;28;19919;-68
2021/12/07 06:22:17;;;;;;;;;;;;;;;;;;5113498;28;19907;-72
2021/12/07 06:24:43;;;;;;;;;;;;;;;;;;5113415;28;19904;-70
2021/12/07 06:27:09;;;;;;;;;;;;;;;;;;5113191;28;19903;-69
2021/12/07 06:29:35;;;;;;;;;;;;;;;;;;5108648;28;19922;-76
2021/12/07 06:32:01;;;;;;;;;;;;;;;;;;5104486;28;20366;-77
2021/12/07 06:34:27;;;;;;;;;;;;;;;;;;5104581;28;19939;-77
2021/12/07 06:36:53;;;;;;;;;;;;;;;;;;5112507;28;19910;-71
2021/12/07 06:39:20;;;;;;;;;;;;;;;;;;5112527;28;20511;-73
2021/12/07 06:41:46;;;;;;;;;;;;;;;;;;5112421;28;19919;-66
2021/12/07 06:44:12;;;;;;;;;;;;;;;;;;5102139;28;19927;-68
2021/12/07 06:46:38;;;;;;;;;;;;;;;;;;5092401;28;20303;-69
2021/12/07 06:49:04;;;;;;;;;;;;;;;;;;5092423;28;20351;-67
2021/12/07 06:51:30;;;;;;;;;;;;;;;;;;5073773;28;20371;-70
2021/12/07 06:53:56;;;;;;;;;;;;;;;;;;5093893;28;19911;-72
2021/12/07 06:56:22;;;;;;;;;;;;;;;;;;5077441;28;19908;-68
2021/12/07 06:58:48;;;;;;;;;;;;;;;;;;5097729;28;20274;-64
2021/12/07 07:01:14;;;;;;;;;;;;;;;;;;5093597;28;20396;-73
2021/12/07 07:03:40;;;;;;;;;;;;;;;;;;5092447;28;20346;-72
2021/12/07 07:06:06;;;;;;;;;;;;;;;;;;5092381;28;20378;-69
2021/12/07 07:08:32;;;;;;;;;;;;;;;;;;5109220;28;20300;-63
2021/12/07 07:10:58;;;;;;;;;;;;;;;;;;5112472;28;19994;-70
2021/12/07 07:13:24;;;;;;;;;;;;;;;;;;5094091;28;19962;-64
2021/12/07 07:15:49;;;;;;;;;;;;;;;;;;5112280;28;19997;-64
2021/12/07 07:18:15;;;;;;;;;;;;;;;;;;5112053;28;20346;-64
2021/12/07 07:20:41;;;;;;;;;;;;;;;;;;5112001;28;19916;-65
2021/12/07 07:23:07;;;;;;;;;;;;;;;;;;5112513;28;19903;-64
2021/12/07 07:25:33;;;;;;;;;;;;;;;;;;5094365;28;19904;-63
2021/12/07 07:27:59;;;;;;;;;;;;;;;;;;5112158;28;19904;-63
2021/12/07 07:30:25;;;;;;;;;;;;;;;;;;5112252;28;19903;-64
2021/12/07 07:32:51;;;;;;;;;;;;;;;;;;5094033;28;20363;-68
2021/12/07 07:35:17;;;;;;;;;;;;;;;;;;5112246;28;19911;-62
2021/12/07 07:37:43;;;;;;;;;;;;;;;;;;5112386;28;19903;-62
2021/12/07 07:40:09;;;;;;;;;;;;;;;;;;5093792;28;19918;-72
2021/12/07 07:42:35;;;;;;;;;;;;;;;;;;5112240;28;20019;-71
2021/12/07 07:45:01;;;;;;;;;;;;;;;;;;5094141;28;19958;-62
2021/12/07 07:47:26;;;;;;;;;;;;;;;;;;5105593;28;19919;-70
2021/12/07 07:49:52;;;;;;;;;;;;;;;;;;5098136;28;20304;-76
2021/12/07 07:52:18;;;;;;;;;;;;;;;;;;5093703;28;20415;-77
2021/12/07 07:54:44;;;;;;;;;;;;;;;;;;5098298;28;19904;-70
2021/12/07 07:57:10;;;;;;;;;;;;;;;;;;5107150;28;19915;-66
2021/12/07 07:59:38;;;;;;;;;;;;;;;;;;5111774;28;19915;-77
2021/12/07 08:02:04;;;;;;;;;;;;;;;;;;5095697;28;19904;-73
2021/12/07 08:04:30;;;;;;;;;;;;;;;;;;5111860;28;19923;-73
2021/12/07 08:06:56;;;;;;;;;;;;;;;;;;5111913;28;19911;-73
2021/12/07 08:09:22;;;;;;;;;;;;;;;;;;5112280;28;20549;-77
2021/12/07 08:11:48;;;;;;;;;;;;;;;;;;5111886;28;19914;-75
2021/12/07 08:14:15;;;;;;;;;;;;;;;;;;5096051;28;20266;-76
2021/12/07 08:16:41;;;;;;;;;;;;;;;;;;5111826;28;19903;-76
2021/12/07 08:19:07;;;;;;;;;;;;;;;;;;5111553;28;19980;-70
2021/12/07 08:21:33;;;;;;;;;;;;;;;;;;5110287;28;20355;-78
2021/12/07 08:23:59;;;;;;;;;;;;;;;;;;5111857;28;19953;-75
2021/12/07 08:26:25;;;;;;;;;;;;;;;;;;5110644;28;19918;-75
2021/12/07 08:28:51;;;;;;;;;;;;;;;;;;5111771;28;19910;-77
2021/12/07 08:31:17;;;;;;;;;;;;;;;;;;5114203;28;19949;-72
2021/12/07 08:33:43;;;;;;;;;;;;;;;;;;5115418;28;20384;-74
2021/12/07 08:36:09;;;;;;;;;;;;;;;;;;5115495;28;19903;-75
2021/12/07 08:38:35;;;;;;;;;;;;;;;;;;5115256;28;19928;-74
2021/12/07 08:41:00;;;;;;;;;;;;;;;;;;5115313;28;19960;-76
2021/12/07 08:43:26;;;;;;;;;;;;;;;;;;5111271;28;19912;-67
2021/12/07 08:45:52;;;;;;;;;;;;;;;;;;5098408;28;19904;-75
2021/12/07 08:48:18;;;;;;;;;;;;;;;;;;5096932;28;19915;-75
2021/12/07 08:50:44;;;;;;;;;;;;;;;;;;5114884;28;19990;-76
2021/12/07 08:53:12;;;;;;;;;;;;;;;;;;5114346;28;19912;-63
2021/12/07 09:01:07;;;;;;;;;;;;;;;;;;5110894;28;19980;-78
2021/12/07 09:03:33;;;;;;;;;;;;;;;;;;5114848;28;20347;-64
2021/12/07 09:05:59;;;;;;;;;;;;;;;;;;5114485;28;19926;-76
2021/12/07 09:08:25;;;;;;;;;;;;;;;;;;5114884;28;19948;-74
2021/12/07 09:10:51;;;;;;;;;;;;;;;;;;5096390;28;19904;-75
2021/12/07 09:13:17;;;;;;;;;;;;;;;;;;5114521;28;20354;-65
2021/12/07 09:15:43;;;;;;;;;;;;;;;;;;5114456;28;19926;-75
2021/12/07 09:18:08;;;;;;;;;;;;;;;;;;5114727;28;19994;-76
2021/12/07 09:20:34;;;;;;;;;;;;;;;;;;5114482;28;20354;-80
2021/12/07 09:23:00;;;;;;;;;;;;;;;;;;5096307;28;19910;-75
2021/12/07 09:25:26;;;;;;;;;;;;;;;;;;5095919;28;20402;-71
2021/12/07 09:27:52;;;;;;;;;;;;;;;;;;5114494;28;19904;-69
2021/12/07 09:30:18;;;;;;;;;;;;;;;;;;5114564;28;20407;-68
2021/12/07 09:32:44;;;;;;;;;;;;;;;;;;5114556;28;19904;-71
2021/12/07 09:35:10;;;;;;;;;;;;;;;;;;5119637;28;19990;-62
2021/12/07 09:37:36;;;;;;;;;;;;;;;;;;5119574;28;20008;-75
2021/12/07 09:40:02;;;;;;;;;;;;;;;;;;5115064;28;19923;-64
2021/12/07 09:42:28;;;;;;;;;;;;;;;;;;5113110;28;19990;-62
2021/12/07 09:44:54;;;;;;;;;;;;;;;;;;5113864;28;19958;-68
2021/12/07 09:47:20;;;;;;;;;;;;;;;;;;5113814;28;19912;-62
2021/12/07 09:49:46;;;;;;;;;;;;;;;;;;5113847;28;19911;-75
2021/12/07 09:52:12;;;;;;;;;;;;;;;;;;5113704;28;19907;-75
2021/12/07 09:54:37;;;;;;;;;;;;;;;;;;5113743;28;19900;-62
2021/12/07 09:57:04;;;;;;;;;;;;;;;;;;5113952;28;19903;-74
2021/12/07 09:59:30;;;;;;;;;;;;;;;;;;5113638;28;20007;-76
2021/12/07 10:01:56;;;;;;;;;;;;;;;;;;5113724;28;19964;-78
2021/12/07 10:04:27;;;;;;;;;;;;;;;;;;5113521;28;20326;-77
2021/12/07 10:06:53;;;;;;;;;;;;;;;;;;5113378;28;19911;-78
2021/12/07 10:09:19;;;;;;;;;;;;;;;;;;5113749;28;19908;-63
2021/12/07 10:11:45;;;;;;;;;;;;;;;;;;5112828;28;19998;-69
2021/12/07 10:14:11;;;;;;;;;;;;;;;;;;5113105;28;19987;-67
2021/12/07 10:16:36;;;;;;;;;;;;;;;;;;5095005;28;20340;-77
2021/12/07 10:19:02;;;;;;;;;;;;;;;;;;5094796;28;19990;-77
2021/12/07 10:21:30;;;;;;;;;;;;;;;;;;5113228;28;19961;-68
2021/12/07 10:23:58;;;;;;;;;;;;;;;;;;5113198;28;20006;-77
2021/12/07 10:26:24;;;;;;;;;;;;;;;;;;5113186;28;19904;-66
2021/12/07 10:28:50;;;;;;;;;;;;;;;;;;5094681;28;20189;-67
2021/12/07 10:31:16;;;;;;;;;;;;;;;;;;5094599;28;19910;-63
2021/12/07 10:33:42;;;;;;;;;;;;;;;;;;5112882;28;19911;-70
2021/12/07 10:36:08;;;;;;;;;;;;;;;;;;5113064;28;19904;-74
2021/12/07 10:38:34;;;;;;;;;;;;;;;;;;5112967;28;20374;-68
2021/12/07 10:41:00;;;;;;;;;;;;;;;;;;5112719;28;19919;-79
2021/12/07 10:43:26;;;;;;;;;;;;;;;;;;5099434;28;19904;-66
2021/12/07 10:45:51;;;;;;;;;;;;;;;;;;5092448;28;19925;-72
2021/12/07 10:48:17;;;;;;;;;;;;;;;;;;5092504;28;20363;-64
2021/12/07 10:50:43;;;;;;;;;;;;;;;;;;5074266;28;19995;-64
2021/12/07 10:53:10;;;;;;;;;;;;;;;;;;5112362;28;19939;-76
2021/12/07 10:55:36;;;;;;;;;;;;;;;;;;5106940;28;19941;-73
2021/12/07 10:58:03;;;;;;;;;;;;;;;;;;5095740;28;20371;-77
2021/12/07 11:00:29;;;;;;;;;;;;;;;;;;5112105;28;20006;-79
2021/12/07 11:02:55;;;;;;;;;;;;;;;;;;5112598;28;19990;-81
2021/12/07 11:05:21;;;;;;;;;;;;;;;;;;5111816;28;20164;-83
2021/12/07 11:07:47;;;;;;;;;;;;;;;;;;5112228;28;19915;-83
2021/12/07 11:10:18;;;;;;;;;;;;;;;;;;5112175;28;19904;-83
2021/12/07 11:13:00;;;;;;;;;;;;;;;;;;5108109;28;19901;-82
2021/12/07 11:15:28;;;;;;;;;;;;;;;;;;5104650;28;20370;-79
2021/12/07 11:17:53;;;;;;;;;;;;;;;;;;5111924;28;19900;-82
2021/12/07 11:20:19;;;;;;;;;;;;;;;;;;5095070;28;20275;-84
2021/12/07 11:22:45;;;;;;;;;;;;;;;;;;5110407;28;20316;-81
2021/12/07 11:25:14;;;;;;;;;;;;;;;;;;5102932;28;19912;-81
2021/12/07 11:30:24;;;;;;;;;;;;;;;;;;5111681;28;20389;-80
2021/12/07 11:32:51;;;;;;;;;;;;;;;;;;5093393;28;19947;-79
2021/12/07 11:35:17;;;;;;;;;;;;;;;;;;5111661;28;19918;-82
2021/12/07 11:37:43;;;;;;;;;;;;;;;;;;5093685;28;19903;-83
2021/12/07 11:40:09;;;;;;;;;;;;;;;;;;5100108;28;20401;-82
2021/12/07 11:42:37;;;;;;;;;;;;;;;;;;5083442;28;20061;-83
2021/12/07 11:45:03;;;;;;;;;;;;;;;;;;5093940;28;20421;-83
2021/12/07 11:47:30;;;;;;;;;;;;;;;;;;5111658;28;19943;-83
2021/12/07 11:49:55;;;;;;;;;;;;;;;;;;5107464;28;19952;-80
2021/12/07 11:52:21;;;;;;;;;;;;;;;;;;5112218;28;19942;-85
2021/12/07 11:54:47;;;;;;;;;;;;;;;;;;5111933;28;19910;-84
2021/12/07 11:57:13;;;;;;;;;;;;;;;;;;5099076;28;20436;-86
2021/12/07 11:59:39;;;;;;;;;;;;;;;;;;5094518;28;19947;-83
2021/12/07 12:02:05;;;;;;;;;;;;;;;;;;5111494;28;19955;-81
2021/12/07 12:04:32;;;;;;;;;;;;;;;;;;5111616;28;20329;-80
2021/12/07 12:06:58;;;;;;;;;;;;;;;;;;5115587;28;19904;-82
2021/12/07 12:09:24;;;;;;;;;;;;;;;;;;5115311;28;19998;-81
2021/12/07 12:11:50;;;;;;;;;;;;;;;;;;5097236;28;19908;-74
2021/12/07 12:14:16;;;;;;;;;;;;;;;;;;5110658;27;20274;-70
2021/12/07 12:16:42;;;;;;;;;;;;;;;;;;5101746;28;19903;-70
2021/12/07 12:19:08;;;;;;;;;;;;;;;;;;5124148;28;19919;-75
2021/12/07 12:21:34;;;;;;;;;;;;;;;;;;5115398;28;19904;-67
2021/12/07 12:24:00;;;;;;;;;;;;;;;;;;5096951;28;19904;-76
2021/12/07 12:26:26;;;;;;;;;;;;;;;;;;5114951;28;19921;-70
2021/12/07 12:28:52;;;;;;;;;;;;;;;;;;5114689;28;19907;-63
2021/12/07 12:31:18;;;;;;;;;;;;;;;;;;5103352;28;19916;-79
2021/12/07 12:33:44;;;;;;;;;;;;;;;;;;5087919;28;20326;-74
2021/12/07 12:36:10;;;;;;;;;;;;;;;;;;5076154;28;19910;-78
2021/12/07 12:38:36;;;;;;;;;;;;;;;;;;5105461;28;19904;-83
2021/12/07 12:41:02;;;;;;;;;;;;;;;;;;5097027;28;19966;-77
2021/12/07 12:43:28;;;;;;;;;;;;;;;;;;5115520;28;19904;-76
2021/12/07 12:45:54;;;;;;;;;;;;;;;;;;5114648;28;19908;-76
2021/12/07 12:48:20;;;;;;;;;;;;;;;;;;5114828;28;20010;-76
2021/12/07 12:50:46;;;;;;;;;;;;;;;;;;5104324;28;19915;-77
2021/12/07 12:53:12;;;;;;;;;;;;;;;;;;5094824;28;19908;-77
2021/12/07 12:55:38;;;;;;;;;;;;;;;;;;5076412;28;19910;-74
2021/12/07 12:58:04;;;;;;;;;;;;;;;;;;5094500;28;19904;-76
2021/12/07 13:00:30;;;;;;;;;;;;;;;;;;5094617;28;19923;-75
2021/12/07 13:02:56;;;;;;;;;;;;;;;;;;5094552;28;19904;-73
2021/12/07 13:05:21;;;;;;;;;;;;;;;;;;5076328;28;19904;-73
2021/12/07 13:07:48;;;;;;;;;;;;;;;;;;5094578;28;20390;-75
2021/12/07 13:10:13;;;;;;;;;;;;;;;;;;5094386;28;19904;-75
2021/12/07 13:12:40;;;;;;;;;;;;;;;;;;5094417;28;19915;-74
2021/12/07 13:15:06;;;;;;;;;;;;;;;;;;5094398;28;19904;-62
2021/12/07 13:17:31;;;;;;;;;;;;;;;;;;5106458;28;20002;-74
2021/12/07 13:19:57;;;;;;;;;;;;;;;;;;5113918;28;19912;-65
2021/12/07 13:22:23;;;;;;;;;;;;;;;;;;5099288;28;19904;-63
2021/12/07 13:24:55;;;;;;;;;;;;;;;;;;5095042;28;20412;-63
2021/12/07 13:27:21;;;;;;;;;;;;;;;;;;5104286;28;20655;-81
2021/12/07 13:29:47;;;;;;;;;;;;;;;;;;5105409;28;19903;-82
2021/12/07 13:32:12;;;;;;;;;;;;;;;;;;5116018;28;19904;-85
2021/12/07 13:34:38;;;;;;;;;;;;;;;;;;5120695;28;19995;-84
2021/12/07 13:37:04;;;;;;;;;;;;;;;;;;5100172;28;19903;-85
2021/12/07 13:39:30;;;;;;;;;;;;;;;;;;5108755;28;19912;-83
2021/12/07 13:41:57;;;;;;;;;;;;;;;;;;5095878;28;19904;-82
2021/12/07 13:44:23;;;;;;;;;;;;;;;;;;5113767;28;20373;-79
2021/12/07 13:46:49;;;;;;;;;;;;;;;;;;5113477;28;19908;-77
2021/12/07 13:49:15;;;;;;;;;;;;;;;;;;5095349;28;19912;-77
2021/12/07 13:51:41;;;;;;;;;;;;;;;;;;5113432;28;19904;-74
2021/12/07 13:54:07;;;;;;;;;;;;;;;;;;5113211;28;19914;-75
2021/12/07 13:56:32;;;;;;;;;;;;;;;;;;5080340;28;19907;-77
2021/12/07 13:58:58;;;;;;;;;;;;;;;;;;5094929;28;19949;-77
2021/12/07 14:01:24;;;;;;;;;;;;;;;;;;5113486;28;19908;-76
2021/12/07 14:03:50;;;;;;;;;;;;;;;;;;5113387;28;20306;-77
2021/12/07 14:06:16;;;;;;;;;;;;;;;;;;5113397;28;19904;-73
2021/12/07 14:08:42;;;;;;;;;;;;;;;;;;5094785;28;19925;-77
2021/12/07 14:11:08;;;;;;;;;;;;;;;;;;5111763;28;19929;-77
2021/12/07 14:13:34;;;;;;;;;;;;;;;;;;5106752;28;19907;-77
2021/12/07 14:16:00;;;;;;;;;;;;;;;;;;5111053;28;19916;-76
2021/12/07 14:18:26;;;;;;;;;;;;;;;;;;5106549;28;19915;-75
2021/12/07 14:20:54;;;;;;;;;;;;;;;;;;5111116;28;20330;-75
2021/12/07 14:23:20;;;;;;;;;;;;;;;;;;5113380;28;19904;-73
2021/12/07 14:25:46;;;;;;;;;;;;;;;;;;5113510;28;19904;-75
2021/12/07 14:28:11;;;;;;;;;;;;;;;;;;5094735;28;19998;-69
2021/12/07 14:30:37;;;;;;;;;;;;;;;;;;5094804;28;19946;-79
2021/12/07 14:33:03;;;;;;;;;;;;;;;;;;5112912;28;19907;-74
2021/12/07 14:35:29;;;;;;;;;;;;;;;;;;5081280;28;19915;-73
2021/12/07 14:37:55;;;;;;;;;;;;;;;;;;5092892;28;19908;-77
2021/12/07 14:40:21;;;;;;;;;;;;;;;;;;5092678;28;19919;-70
2021/12/07 14:42:47;;;;;;;;;;;;;;;;;;5092829;28;19943;-78
2021/12/07 14:45:13;;;;;;;;;;;;;;;;;;5074624;28;19954;-74
2021/12/07 14:47:39;;;;;;;;;;;;;;;;;;5074497;28;19915;-77
2021/12/07 14:50:05;;;;;;;;;;;;;;;;;;5092934;28;19904;-71
2021/12/07 14:52:31;;;;;;;;;;;;;;;;;;5111710;28;20427;-65
2021/12/07 14:54:57;;;;;;;;;;;;;;;;;;5112141;28;19907;-67
2021/12/07 14:57:23;;;;;;;;;;;;;;;;;;5112028;28;19933;-72
2021/12/07 14:59:49;;;;;;;;;;;;;;;;;;5121013;28;19912;-64
2021/12/07 15:02:15;;;;;;;;;;;;;;;;;;5114868;28;19910;-79
2021/12/07 15:04:41;;;;;;;;;;;;;;;;;;5113126;28;20002;-72
2021/12/07 15:07:07;;;;;;;;;;;;;;;;;;5112396;28;20410;-74
2021/12/07 15:09:32;;;;;;;;;;;;;;;;;;5112465;28;19910;-76
2021/12/07 15:11:58;;;;;;;;;;;;;;;;;;5099138;28;20049;-77
2021/12/07 15:14:24;;;;;;;;;;;;;;;;;;5092169;28;19957;-78
2021/12/07 15:16:50;;;;;;;;;;;;;;;;;;5092289;28;19973;-79
2021/12/07 15:19:16;;;;;;;;;;;;;;;;;;5092104;28;19915;-77
2021/12/07 15:21:42;;;;;;;;;;;;;;;;;;5092227;28;20322;-78
2021/12/07 15:24:08;;;;;;;;;;;;;;;;;;5074221;28;20373;-79
2021/12/07 15:26:34;;;;;;;;;;;;;;;;;;5092037;28;20262;-77
2021/12/07 15:29:00;;;;;;;;;;;;;;;;;;5092123;28;20374;-76
2021/12/07 15:31:26;;;;;;;;;;;;;;;;;;5092273;28;19904;-78
2021/12/07 15:33:52;;;;;;;;;;;;;;;;;;5102865;28;20301;-80
2021/12/07 15:36:18;;;;;;;;;;;;;;;;;;5106007;28;19904;-76
2021/12/07 15:38:44;;;;;;;;;;;;;;;;;;5095936;28;20381;-85
2021/12/07 15:41:10;;;;;;;;;;;;;;;;;;5114623;28;19911;-82
2021/12/07 15:43:36;;;;;;;;;;;;;;;;;;5116438;28;19903;-79
2021/12/07 15:46:02;;;;;;;;;;;;;;;;;;5116217;28;19908;-69
2021/12/07 15:48:30;;;;;;;;;;;;;;;;;;5116058;28;20386;-80
2021/12/07 15:50:56;;;;;;;;;;;;;;;;;;5109595;28;19903;-71
2021/12/07 15:53:22;;;;;;;;;;;;;;;;;;5118737;28;19900;-70
2021/12/07 15:55:48;;;;;;;;;;;;;;;;;;5111124;28;19990;-75
2021/12/07 15:58:13;;;;;;;;;;;;;;;;;;5115303;28;20002;-73
2021/12/07 16:00:41;;;;;;;;;;;;;;;;;;5115424;28;20347;-69
2021/12/07 16:03:06;;;;;;;;;;;;;;;;;;5115564;28;19914;-76
2021/12/07 16:05:32;;;;;;;;;;;;;;;;;;5115528;28;19908;-70
2021/12/07 16:07:59;;;;;;;;;;;;;;;;;;5115970;28;19903;-67
2021/12/07 16:10:25;;;;;;;;;;;;;;;;;;5097459;28;19911;-76
2021/12/07 16:12:51;;;;;;;;;;;;;;;;;;5115800;28;19965;-74
2021/12/07 16:15:17;;;;;;;;;;;;;;;;;;5115773;28;20350;-75
2021/12/07 16:17:43;;;;;;;;;;;;;;;;;;5115607;28;19928;-67
2021/12/07 16:20:09;;;;;;;;;;;;;;;;;;5115697;28;20002;-75
2021/12/07 16:22:35;;;;;;;;;;;;;;;;;;5115752;28;19907;-68
2021/12/07 16:25:01;;;;;;;;;;;;;;;;;;5097280;28;19911;-70
2021/12/07 16:27:27;;;;;;;;;;;;;;;;;;5112299;28;19915;-66
2021/12/07 16:29:53;;;;;;;;;;;;;;;;;;5104147;28;19914;-70
2021/12/07 16:32:19;;;;;;;;;;;;;;;;;;5124707;28;20347;-75
2021/12/07 16:34:45;;;;;;;;;;;;;;;;;;5113282;28;19904;-77
2021/12/07 16:37:11;;;;;;;;;;;;;;;;;;5127342;28;19984;-73
2021/12/07 16:39:37;;;;;;;;;;;;;;;;;;5115648;28;19916;-80
2021/12/07 16:42:02;;;;;;;;;;;;;;;;;;5114374;28;19911;-71
2021/12/07 16:44:28;;;;;;;;;;;;;;;;;;5114889;28;19911;-78
2021/12/07 16:46:54;;;;;;;;;;;;;;;;;;5105702;28;19915;-79
2021/12/07 16:49:21;;;;;;;;;;;;;;;;;;5114347;28;19912;-80
2021/12/07 16:51:46;;;;;;;;;;;;;;;;;;5113756;28;19992;-70
2021/12/07 16:54:12;;;;;;;;;;;;;;;;;;5114352;28;20289;-75
2021/12/07 16:56:38;;;;;;;;;;;;;;;;;;5114500;28;19935;-78
2021/12/07 16:59:04;;;;;;;;;;;;;;;;;;5113897;28;20591;-78
2021/12/07 17:01:31;;;;;;;;;;;;;;;;;;5113848;28;19907;-79
2021/12/07 17:03:57;;;;;;;;;;;;;;;;;;5095419;28;19904;-83
2021/12/07 17:06:23;;;;;;;;;;;;;;;;;;5114115;28;19941;-78
2021/12/07 17:08:49;;;;;;;;;;;;;;;;;;5114249;28;20255;-77
2021/12/07 17:11:15;;;;;;;;;;;;;;;;;;5114234;28;19987;-77
2021/12/07 17:13:41;;;;;;;;;;;;;;;;;;5114142;28;20489;-74
2021/12/07 17:16:07;;;;;;;;;;;;;;;;;;5114020;28;19904;-73
2021/12/07 17:18:33;;;;;;;;;;;;;;;;;;5114064;28;20419;-78
2021/12/07 17:21:01;;;;;;;;;;;;;;;;;;5105264;28;19912;-72
2021/12/07 17:23:27;;;;;;;;;;;;;;;;;;5110076;28;20361;-64
2021/12/07 17:25:53;;;;;;;;;;;;;;;;;;5113822;28;19903;-73
2021/12/07 17:28:18;;;;;;;;;;;;;;;;;;5095326;28;19904;-74
2021/12/07 17:30:47;;;;;;;;;;;;;;;;;;5095216;28;19908;-63
2021/12/07 17:33:13;;;;;;;;;;;;;;;;;;5095171;28;19929;-62
2021/12/07 17:35:39;;;;;;;;;;;;;;;;;;5113546;28;20362;-63
2021/12/07 17:38:05;;;;;;;;;;;;;;;;;;5102161;28;19904;-64
2021/12/07 17:40:30;;;;;;;;;;;;;;;;;;5113616;28;19912;-63
2021/12/07 17:42:56;;;;;;;;;;;;;;;;;;5113605;28;20298;-63
2021/12/07 17:45:23;;;;;;;;;;;;;;;;;;5113277;28;20485;-63
2021/12/07 17:47:49;;;;;;;;;;;;;;;;;;5113136;28;20359;-61
2021/12/07 17:50:15;;;;;;;;;;;;;;;;;;5112942;28;19913;-62
2021/12/07 17:52:41;;;;;;;;;;;;;;;;;;5112761;28;19910;-62
2021/12/07 17:55:07;;;;;;;;;;;;;;;;;;5112628;28;19983;-62
2021/12/07 17:57:33;;;;;;;;;;;;;;;;;;5094714;28;19903;-61
2021/12/07 17:59:58;;;;;;;;;;;;;;;;;;5112900;28;19912;-62
2021/12/07 18:02:24;;;;;;;;;;;;;;;;;;5112449;28;19903;-62
2021/12/07 18:04:50;;;;;;;;;;;;;;;;;;5094158;28;19904;-62
2021/12/07 18:07:16;;;;;;;;;;;;;;;;;;5112704;28;20290;-61
2021/12/07 18:09:44;;;;;;;;;;;;;;;;;;5112484;28;19908;-62
2021/12/07 18:12:10;;;;;;;;;;;;;;;;;;5101777;28;19904;-61
2021/12/07 18:14:36;;;;;;;;;;;;;;;;;;5112686;28;19911;-62
2021/12/07 18:17:02;;;;;;;;;;;;;;;;;;5112627;28;19908;-62
2021/12/07 18:19:28;;;;;;;;;;;;;;;;;;5094518;28;19908;-62
2021/12/07 18:21:54;;;;;;;;;;;;;;;;;;5109264;28;19908;-66
2021/12/07 18:24:20;;;;;;;;;;;;;;;;;;5103251;28;19907;-64
2021/12/07 18:26:47;;;;;;;;;;;;;;;;;;5112181;28;20467;-62
2021/12/07 18:29:12;;;;;;;;;;;;;;;;;;5092427;28;19943;-65